createdAt,value
2019-05-29T00:02:01.420Z,9.80
2019-05-29T00:04:26.614Z,9.70
2019-05-29T00:06:51.729Z,9.70
2019-05-29T00:09:16.838Z,9.70
2019-05-29T00:11:41.985Z,9.60
2019-05-29T00:14:19.751Z,9.60
2019-05-29T00:16:33.831Z,9.60
2019-05-29T00:18:58.919Z,9.60
2019-05-29T00:21:24.106Z,9.60
2019-05-29T00:23:49.236Z,9.60
2019-05-29T00:26:14.603Z,9.50
2019-05-29T00:28:39.828Z,9.50
2019-05-29T00:31:05.806Z,9.50
2019-05-29T00:33:30.986Z,9.50
2019-05-29T00:35:56.086Z,9.50
2019-05-29T00:38:21.207Z,9.50
2019-05-29T00:40:46.470Z,9.50
2019-05-29T00:43:11.578Z,9.50
2019-05-29T00:45:36.669Z,9.50
2019-05-29T00:48:02.278Z,9.60
2019-05-29T00:50:27.376Z,9.60
2019-05-29T00:52:54.548Z,9.60
2019-05-29T00:55:19.634Z,9.60
2019-05-29T00:57:44.850Z,9.60
2019-05-29T01:00:11.325Z,9.60
2019-05-29T01:02:36.422Z,9.60
2019-05-29T01:05:01.831Z,9.60
2019-05-29T01:07:26.910Z,9.60
2019-05-29T01:09:52.081Z,9.60
2019-05-29T01:12:17.208Z,9.60
2019-05-29T01:14:50.250Z,9.60
2019-05-29T01:17:12.076Z,9.60
2019-05-29T01:19:37.234Z,9.50
2019-05-29T01:22:02.402Z,9.50
2019-05-29T01:24:27.817Z,9.50
2019-05-29T01:26:52.905Z,9.50
2019-05-29T01:29:19.463Z,9.50
2019-05-29T01:31:44.651Z,9.50
2019-05-29T01:34:09.762Z,9.40
2019-05-29T01:36:35.165Z,9.40
2019-05-29T01:39:00.305Z,9.40
2019-05-29T01:41:25.434Z,9.40
2019-05-29T01:43:50.522Z,9.30
2019-05-29T01:46:15.675Z,9.30
2019-05-29T01:48:40.776Z,9.30
2019-05-29T01:51:06.034Z,9.30
2019-05-29T01:53:31.158Z,9.30
2019-05-29T01:55:56.539Z,9.20
2019-05-29T01:58:21.966Z,9.30
2019-05-29T02:00:47.953Z,9.30
2019-05-29T02:03:13.058Z,9.30
2019-05-29T02:05:38.886Z,9.30
2019-05-29T02:08:03.996Z,9.30
2019-05-29T02:10:29.123Z,9.30
2019-05-29T02:12:55.191Z,9.30
2019-05-29T02:15:30.131Z,9.30
2019-05-29T02:17:47.199Z,9.30
2019-05-29T02:20:13.381Z,9.30
2019-05-29T02:22:38.646Z,9.30
2019-05-29T02:25:03.755Z,9.30
2019-05-29T02:27:28.957Z,9.30
2019-05-29T02:29:55.523Z,9.40
2019-05-29T02:32:21.382Z,9.40
2019-05-29T02:34:46.565Z,9.40
2019-05-29T02:37:11.651Z,9.40
2019-05-29T02:39:37.031Z,9.50
2019-05-29T02:42:02.238Z,9.50
2019-05-29T02:44:27.703Z,9.50
2019-05-29T02:46:53.556Z,9.50
2019-05-29T02:49:19.956Z,9.60
2019-05-29T02:51:45.425Z,9.60
2019-05-29T02:54:10.531Z,9.60
2019-05-29T02:56:35.640Z,9.60
2019-05-29T02:59:01.309Z,9.60
2019-05-29T03:01:27.821Z,9.70
2019-05-29T03:03:53.359Z,9.70
2019-05-29T03:06:18.466Z,9.70
2019-05-29T03:08:43.560Z,9.70
2019-05-29T03:11:08.744Z,9.70
2019-05-29T03:13:34.847Z,9.80
2019-05-29T03:16:10.327Z,9.70
2019-05-29T03:18:28.076Z,9.70
2019-05-29T03:20:54.640Z,9.80
2019-05-29T03:23:19.803Z,9.80
2019-05-29T03:25:44.911Z,9.80
2019-05-29T03:28:10.035Z,9.80
2019-05-29T03:30:44.198Z,9.80
2019-05-29T03:33:01.871Z,9.80
2019-05-29T03:35:30.915Z,9.80
2019-05-29T03:37:53.723Z,9.90
2019-05-29T03:40:18.815Z,9.80
2019-05-29T03:42:44.913Z,9.90
2019-05-29T03:45:10.114Z,9.90
2019-05-29T03:47:36.984Z,9.90
2019-05-29T03:50:01.954Z,9.90
2019-05-29T03:52:28.348Z,9.90
2019-05-29T03:54:53.862Z,10.00
2019-05-29T03:57:18.987Z,10.00
2019-05-29T03:59:44.195Z,10.00
2019-05-29T04:02:10.159Z,10.00
2019-05-29T04:04:36.274Z,10.10
2019-05-29T04:07:02.362Z,10.10
2019-05-29T04:09:29.075Z,10.10
2019-05-29T04:11:56.671Z,10.10
2019-05-29T04:14:21.773Z,10.10
2019-05-29T04:16:58.994Z,10.20
2019-05-29T04:19:15.719Z,10.20
2019-05-29T04:21:43.797Z,10.20
2019-05-29T04:24:08.928Z,10.30
2019-05-29T04:26:38.780Z,10.30
2019-05-29T04:29:04.099Z,10.30
2019-05-29T04:31:29.974Z,10.40
2019-05-29T04:33:55.067Z,10.40
2019-05-29T04:36:20.179Z,10.50
2019-05-29T04:38:45.312Z,10.50
2019-05-29T04:41:10.755Z,10.50
2019-05-29T04:43:37.399Z,10.60
2019-05-29T04:46:02.999Z,10.60
2019-05-29T04:48:29.454Z,10.60
2019-05-29T04:50:54.819Z,10.70
2019-05-29T04:53:20.030Z,10.70
2019-05-29T04:55:45.117Z,10.80
2019-05-29T04:58:10.226Z,10.70
2019-05-29T05:00:35.365Z,10.80
2019-05-29T05:03:00.441Z,10.90
2019-05-29T05:05:25.578Z,10.90
2019-05-29T05:07:50.688Z,11.00
2019-05-29T05:10:21.125Z,11.10
2019-05-29T05:12:46.723Z,11.10
2019-05-29T05:15:11.802Z,11.20
2019-05-29T05:17:38.017Z,11.20
2019-05-29T05:20:03.406Z,11.30
2019-05-29T05:22:29.950Z,11.40
2019-05-29T05:24:55.101Z,11.40
2019-05-29T05:27:20.459Z,11.50
2019-05-29T05:29:45.582Z,11.60
2019-05-29T05:32:10.678Z,11.60
2019-05-29T05:34:36.881Z,11.70
2019-05-29T05:37:02.019Z,11.70
2019-05-29T05:39:27.116Z,11.80
2019-05-29T05:41:53.054Z,11.90
2019-05-29T05:44:18.174Z,11.90
2019-05-29T05:46:43.317Z,12.00
2019-05-29T05:49:08.418Z,12.10
2019-05-29T05:51:38.271Z,12.30
2019-05-29T05:54:01.482Z,12.50
2019-05-29T05:56:26.834Z,12.80
2019-05-29T05:58:52.087Z,12.90
2019-05-29T06:01:17.428Z,13.00
2019-05-29T06:03:42.859Z,13.20
2019-05-29T06:06:08.019Z,13.20
2019-05-29T06:08:34.045Z,13.30
2019-05-29T06:10:59.510Z,13.30
2019-05-29T06:13:24.604Z,13.20
2019-05-29T06:15:50.151Z,13.10
2019-05-29T06:18:21.617Z,13.20
2019-05-29T06:20:43.188Z,13.20
2019-05-29T06:23:08.588Z,13.50
2019-05-29T06:25:34.457Z,13.90
2019-05-29T06:28:01.026Z,14.40
2019-05-29T06:30:29.171Z,14.80
2019-05-29T06:32:54.298Z,15.40
2019-05-29T06:35:19.666Z,15.60
2019-05-29T06:37:45.871Z,15.70
2019-05-29T06:40:11.901Z,15.70
2019-05-29T06:42:37.854Z,15.70
2019-05-29T06:45:03.831Z,15.80
2019-05-29T06:47:29.549Z,16.20
2019-05-29T06:49:54.636Z,16.60
2019-05-29T06:52:19.763Z,16.90
2019-05-29T06:54:45.397Z,16.70
2019-05-29T06:57:10.784Z,16.90
2019-05-29T06:59:36.124Z,17.40
2019-05-29T07:02:01.211Z,17.70
2019-05-29T07:04:26.613Z,17.70
2019-05-29T07:06:51.983Z,17.80
2019-05-29T07:09:18.054Z,17.40
2019-05-29T07:11:43.522Z,17.50
2019-05-29T07:14:09.674Z,17.60
2019-05-29T07:16:45.460Z,17.70
2019-05-29T07:19:24.775Z,17.20
2019-05-29T07:21:28.626Z,17.20
2019-05-29T07:23:54.335Z,17.20
2019-05-29T07:26:19.471Z,17.10
2019-05-29T07:29:02.007Z,17.10
2019-05-29T07:31:20.206Z,17.20
2019-05-29T07:33:45.925Z,17.10
2019-05-29T07:36:11.287Z,17.10
2019-05-29T07:38:37.614Z,17.30
2019-05-29T07:41:04.143Z,17.30
2019-05-29T07:43:29.262Z,17.10
2019-05-29T07:45:54.403Z,17.00
2019-05-29T07:48:19.798Z,17.30
2019-05-29T07:50:46.296Z,17.20
2019-05-29T07:53:11.393Z,17.00
2019-05-29T07:55:38.311Z,17.00
2019-05-29T07:58:03.558Z,17.00
2019-05-29T08:00:35.528Z,17.10
2019-05-29T08:02:55.927Z,17.00
2019-05-29T08:05:21.034Z,16.90
2019-05-29T08:07:47.581Z,16.40
2019-05-29T08:10:13.506Z,16.20
2019-05-29T08:12:45.284Z,16.30
2019-05-29T08:15:06.359Z,16.40
2019-05-29T08:17:31.880Z,16.50
2019-05-29T08:20:06.575Z,16.20
2019-05-29T08:22:34.249Z,16.30
2019-05-29T08:24:51.368Z,16.40
2019-05-29T08:27:16.551Z,16.20
2019-05-29T08:29:42.601Z,16.10
2019-05-29T08:32:07.834Z,16.00
2019-05-29T08:34:33.194Z,16.20
2019-05-29T08:37:06.517Z,16.40
2019-05-29T08:39:36.144Z,16.50
2019-05-29T08:42:19.545Z,16.50
2019-05-29T08:44:21.482Z,16.40
2019-05-29T08:47:04.201Z,16.40
2019-05-29T08:49:13.411Z,16.30
2019-05-29T08:51:38.483Z,16.30
2019-05-29T08:54:21.009Z,16.40
2019-05-29T08:56:30.750Z,16.50
2019-05-29T08:58:56.102Z,16.30
2019-05-29T09:01:21.255Z,16.30
2019-05-29T09:03:46.777Z,16.10
2019-05-29T09:06:13.689Z,16.00
2019-05-29T09:08:38.674Z,16.10
2019-05-29T09:11:06.354Z,16.30
2019-05-29T09:13:31.743Z,16.30
2019-05-29T09:15:56.841Z,16.50
2019-05-29T09:18:25.588Z,16.40
2019-05-29T09:21:02.824Z,16.50
2019-05-29T09:23:18.777Z,16.50
2019-05-29T09:25:44.255Z,16.60
2019-05-29T09:28:16.481Z,16.60
2019-05-29T09:30:42.427Z,16.70
2019-05-29T09:33:07.813Z,16.80
2019-05-29T09:35:33.768Z,16.90
2019-05-29T09:37:59.103Z,17.10
2019-05-29T09:40:24.995Z,17.40
2019-05-29T09:42:50.731Z,17.50
2019-05-29T09:45:16.601Z,17.40
2019-05-29T09:47:42.902Z,17.20
2019-05-29T09:50:08.139Z,17.30
2019-05-29T09:52:33.406Z,17.30
2019-05-29T09:54:58.793Z,17.30
2019-05-29T09:57:24.165Z,17.30
2019-05-29T09:59:49.302Z,17.10
2019-05-29T10:02:14.416Z,17.10
2019-05-29T10:04:40.050Z,16.90
2019-05-29T10:07:05.195Z,17.00
2019-05-29T10:09:30.438Z,17.00
2019-05-29T10:11:59.682Z,16.90
2019-05-29T10:14:22.906Z,17.10
2019-05-29T10:16:48.066Z,17.00
2019-05-29T10:19:13.180Z,17.30
2019-05-29T10:21:40.636Z,17.60
2019-05-29T10:24:06.289Z,17.40
2019-05-29T10:26:31.727Z,17.60
2019-05-29T10:31:24.876Z,17.80
2019-05-29T10:32:52.861Z,17.50
2019-05-29T10:33:50.293Z,18.10
2019-05-29T10:36:15.525Z,18.30
2019-05-29T10:38:40.867Z,18.50
2019-05-29T10:41:07.342Z,18.50
2019-05-29T10:43:34.569Z,18.50
2019-05-29T10:45:59.746Z,18.40
2019-05-29T10:48:24.878Z,18.50
2019-05-29T10:50:53.567Z,18.40
2019-05-29T10:53:19.291Z,18.50
2019-05-29T10:55:46.364Z,18.60
2019-05-29T10:58:11.528Z,18.90
2019-05-29T11:00:39.072Z,19.20
2019-05-29T11:03:04.721Z,19.40
2019-05-29T11:05:34.260Z,19.40
2019-05-29T11:08:01.233Z,19.00
2019-05-29T11:10:26.386Z,19.10
2019-05-29T11:12:54.575Z,19.30
2019-05-29T11:15:22.121Z,19.60
2019-05-29T11:17:48.918Z,19.70
2019-05-29T11:20:14.898Z,20.10
2019-05-29T11:22:40.030Z,20.60
2019-05-29T11:25:21.483Z,20.60
2019-05-29T11:27:33.598Z,20.90
2019-05-29T11:30:00.210Z,21.00
2019-05-29T11:32:25.447Z,20.70
2019-05-29T11:34:52.374Z,20.60
2019-05-29T11:37:18.286Z,20.50
2019-05-29T11:39:43.768Z,20.70
2019-05-29T11:42:08.822Z,20.20
2019-05-29T11:44:35.237Z,20.40
2019-05-29T11:47:00.612Z,20.70
2019-05-29T11:49:26.026Z,20.90
2019-05-29T11:51:53.822Z,21.20
2019-05-29T11:54:20.900Z,21.20
2019-05-29T11:56:46.414Z,21.40
2019-05-29T11:59:11.523Z,21.40
2019-05-29T12:01:49.638Z,21.20
2019-05-29T12:04:22.603Z,21.70
2019-05-29T12:06:32.466Z,22.20
2019-05-29T12:08:59.989Z,21.90
2019-05-29T12:11:27.088Z,22.00
2019-05-29T12:13:54.026Z,22.20
2019-05-29T12:16:18.978Z,22.40
2019-05-29T12:18:44.188Z,22.30
2019-05-29T12:21:09.305Z,22.20
2019-05-29T12:23:34.443Z,22.20
2019-05-29T12:26:21.134Z,22.60
2019-05-29T12:28:27.821Z,22.40
2019-05-29T12:30:55.034Z,22.10
2019-05-29T12:33:20.551Z,22.00
2019-05-29T12:35:45.682Z,21.90
2019-05-29T12:38:10.787Z,22.10
2019-05-29T12:40:36.276Z,22.20
2019-05-29T12:43:01.947Z,22.90
2019-05-29T12:45:27.098Z,23.30
2019-05-29T12:47:53.780Z,23.10
2019-05-29T12:50:19.190Z,23.00
2019-05-29T12:52:44.870Z,22.60
2019-05-29T12:55:12.010Z,22.80
2019-05-29T12:57:37.368Z,22.90
2019-05-29T13:00:04.395Z,22.80
2019-05-29T13:02:30.798Z,23.00
2019-05-29T13:05:11.129Z,22.90
2019-05-29T13:07:22.966Z,23.10
2019-05-29T13:09:48.081Z,23.20
2019-05-29T13:12:13.207Z,23.00
2019-05-29T13:14:38.324Z,22.70
2019-05-29T13:17:05.047Z,22.60
2019-05-29T13:19:30.303Z,23.10
2019-05-29T13:21:56.975Z,22.80
2019-05-29T13:24:26.456Z,22.60
2019-05-29T13:26:52.135Z,22.50
2019-05-29T13:29:17.254Z,22.30
2019-05-29T13:31:43.826Z,21.80
2019-05-29T13:34:11.177Z,22.00
2019-05-29T13:36:36.288Z,22.20
2019-05-29T13:39:02.401Z,22.50
2019-05-29T13:41:27.677Z,22.50
2019-05-29T13:43:54.350Z,22.60
2019-05-29T13:46:19.722Z,22.50
2019-05-29T13:48:44.847Z,22.80
2019-05-29T13:51:13.050Z,23.10
2019-05-29T13:53:40.091Z,23.00
2019-05-29T13:56:08.206Z,22.90
2019-05-29T13:58:33.329Z,23.10
2019-05-29T14:01:00.620Z,23.30
2019-05-29T14:03:26.518Z,23.40
2019-05-29T14:05:51.622Z,23.60
2019-05-29T14:08:17.753Z,23.70
2019-05-29T14:10:44.270Z,23.30
2019-05-29T14:13:09.479Z,23.40
2019-05-29T14:15:34.801Z,23.50
2019-05-29T14:18:02.709Z,23.70
2019-05-29T14:20:27.990Z,23.60
2019-05-29T14:22:53.197Z,23.40
2019-05-29T14:25:19.038Z,23.70
2019-05-29T14:27:44.142Z,23.90
2019-05-29T14:30:10.592Z,23.90
2019-05-29T14:32:36.008Z,24.00
2019-05-29T14:35:04.309Z,24.40
2019-05-29T14:37:28.658Z,24.70
2019-05-29T14:39:54.874Z,25.00
2019-05-29T14:42:19.972Z,24.80
2019-05-29T14:44:45.359Z,24.90
2019-05-29T14:47:10.458Z,25.20
2019-05-29T14:49:36.813Z,24.70
2019-05-29T14:52:02.566Z,24.80
2019-05-29T14:54:41.427Z,24.70
2019-05-29T14:56:54.766Z,24.50
2019-05-29T14:59:20.169Z,24.20
2019-05-29T15:01:51.016Z,24.20
2019-05-29T15:04:14.601Z,23.50
2019-05-29T15:06:39.870Z,23.40
2019-05-29T15:09:07.668Z,23.60
2019-05-29T15:11:34.829Z,23.60
2019-05-29T15:14:01.191Z,23.50
2019-05-29T15:16:26.553Z,23.50
2019-05-29T15:18:51.978Z,23.30
2019-05-29T15:21:20.355Z,23.20
2019-05-29T15:23:45.981Z,23.30
2019-05-29T15:26:13.710Z,23.30
2019-05-29T15:28:39.385Z,23.20
2019-05-29T15:31:06.542Z,22.80
2019-05-29T15:33:31.690Z,22.70
2019-05-29T15:35:56.850Z,22.60
2019-05-29T15:38:24.517Z,22.70
2019-05-29T15:40:49.614Z,22.50
2019-05-29T15:43:15.354Z,22.50
2019-05-29T15:45:40.516Z,22.40
2019-05-29T15:48:06.928Z,22.30
2019-05-29T15:50:32.470Z,22.10
2019-05-29T15:52:57.842Z,22.10
2019-05-29T15:55:33.351Z,22.00
2019-05-29T15:57:50.696Z,21.70
2019-05-29T16:00:17.561Z,21.60
2019-05-29T16:02:43.227Z,21.40
2019-05-29T16:05:13.112Z,21.30
2019-05-29T16:07:38.618Z,21.30
2019-05-29T16:10:05.600Z,21.20
2019-05-29T16:12:33.480Z,21.20
2019-05-29T16:15:00.966Z,21.30
2019-05-29T16:17:28.450Z,21.00
2019-05-29T16:19:53.778Z,20.90
2019-05-29T16:22:19.256Z,20.90
2019-05-29T16:24:44.946Z,20.70
2019-05-29T16:27:10.604Z,20.70
2019-05-29T16:29:36.522Z,20.60
2019-05-29T16:32:01.974Z,20.50
2019-05-29T16:34:27.116Z,20.40
2019-05-29T16:36:52.215Z,20.50
2019-05-29T16:39:19.702Z,20.50
2019-05-29T16:41:44.611Z,20.50
2019-05-29T16:44:09.996Z,20.50
2019-05-29T16:46:35.810Z,20.60
2019-05-29T16:49:01.167Z,20.60
2019-05-29T16:51:26.630Z,20.50
2019-05-29T16:53:51.710Z,20.50
2019-05-29T16:56:16.842Z,20.40
2019-05-29T16:58:41.967Z,20.30
2019-05-29T17:01:08.960Z,20.20
2019-05-29T17:03:34.177Z,20.20
2019-05-29T17:05:59.282Z,20.30
2019-05-29T17:08:24.712Z,20.30
2019-05-29T17:10:50.917Z,20.10
2019-05-29T17:13:16.590Z,20.00
2019-05-29T17:15:42.071Z,19.90
2019-05-29T17:18:07.224Z,19.80
2019-05-29T17:20:50.510Z,19.80
2019-05-29T17:23:17.001Z,19.70
2019-05-29T17:25:42.406Z,19.60
2019-05-29T17:28:07.531Z,19.50
2019-05-29T17:30:32.719Z,19.40
2019-05-29T17:32:58.018Z,19.40
2019-05-29T17:35:23.440Z,19.30
2019-05-29T17:37:48.582Z,19.10
2019-05-29T17:40:14.923Z,19.10
2019-05-29T17:42:40.151Z,19.10
2019-05-29T17:45:06.600Z,19.00
2019-05-29T17:47:31.762Z,19.00
2019-05-29T17:49:56.849Z,18.90
2019-05-29T17:52:23.838Z,18.80
2019-05-29T17:54:49.087Z,18.70
2019-05-29T17:57:16.449Z,18.70
2019-05-29T17:59:41.185Z,18.60
2019-05-29T18:02:06.371Z,18.50
2019-05-29T18:04:31.770Z,18.50
2019-05-29T18:06:56.873Z,18.30
2019-05-29T18:09:24.703Z,18.10
2019-05-29T18:11:49.526Z,18.10
2019-05-29T18:14:14.622Z,17.90
2019-05-29T18:16:39.823Z,17.80
2019-05-29T18:19:05.195Z,17.70
2019-05-29T18:21:31.206Z,17.70
2019-05-29T18:23:56.405Z,17.60
2019-05-29T18:26:22.010Z,17.60
2019-05-29T18:28:47.474Z,17.50
2019-05-29T18:31:12.848Z,17.40
2019-05-29T18:33:37.983Z,17.30
2019-05-29T18:36:03.438Z,17.20
2019-05-29T18:38:28.899Z,17.10
2019-05-29T18:40:55.680Z,16.90
2019-05-29T18:43:21.075Z,16.90
2019-05-29T18:45:46.989Z,16.80
2019-05-29T18:48:12.350Z,16.80
2019-05-29T18:50:37.447Z,16.70
2019-05-29T18:53:02.562Z,16.70
2019-05-29T18:55:28.782Z,16.60
2019-05-29T18:57:54.190Z,16.50
2019-05-29T19:00:21.316Z,16.40
2019-05-29T19:02:46.482Z,16.30
2019-05-29T19:05:12.985Z,16.30
2019-05-29T19:07:38.849Z,16.20
2019-05-29T19:10:06.744Z,16.10
2019-05-29T19:12:32.180Z,16.10
2019-05-29T19:14:57.325Z,15.90
2019-05-29T19:17:23.837Z,15.90
2019-05-29T19:19:49.252Z,15.80
2019-05-29T19:22:14.455Z,15.70
2019-05-29T19:24:39.807Z,15.60
2019-05-29T19:27:05.056Z,15.50
2019-05-29T19:29:31.209Z,15.40
2019-05-29T19:31:56.457Z,15.30
2019-05-29T19:34:21.590Z,15.10
2019-05-29T19:36:46.697Z,15.00
2019-05-29T19:39:11.874Z,14.90
2019-05-29T19:41:37.830Z,14.80
2019-05-29T19:44:02.947Z,14.70
2019-05-29T19:46:28.581Z,14.60
2019-05-29T19:48:54.602Z,14.50
2019-05-29T19:51:25.243Z,14.40
2019-05-29T19:53:52.992Z,14.30
2019-05-29T19:56:19.358Z,14.20
2019-05-29T19:58:44.617Z,14.00
2019-05-29T20:01:09.727Z,14.00
2019-05-29T20:03:34.820Z,13.80
2019-05-29T20:06:01.336Z,13.80
2019-05-29T20:08:27.042Z,13.60
2019-05-29T20:10:52.540Z,13.50
2019-05-29T20:13:17.967Z,13.50
2019-05-29T20:15:43.070Z,13.40
2019-05-29T20:18:08.572Z,13.30
2019-05-29T20:20:34.523Z,13.20
2019-05-29T20:22:59.655Z,13.10
2019-05-29T20:25:25.126Z,13.00
2019-05-29T20:28:05.242Z,12.90
2019-05-29T20:30:18.025Z,12.80
2019-05-29T20:32:43.232Z,12.70
2019-05-29T20:35:08.582Z,12.60
2019-05-29T20:37:34.081Z,12.60
2019-05-29T20:39:59.559Z,12.50
2019-05-29T20:42:25.486Z,12.40
2019-05-29T20:44:50.577Z,12.40
2019-05-29T20:47:15.708Z,12.30
2019-05-29T20:49:42.180Z,12.20
2019-05-29T20:52:07.375Z,12.10
2019-05-29T20:54:33.512Z,12.10
2019-05-29T20:57:00.606Z,12.00
2019-05-29T20:59:25.762Z,11.90
2019-05-29T21:01:50.870Z,11.90
2019-05-29T21:04:16.390Z,11.80
2019-05-29T21:06:42.738Z,11.70
2019-05-29T21:09:09.585Z,11.60
2019-05-29T21:11:35.356Z,11.60
2019-05-29T21:14:00.890Z,11.50
2019-05-29T21:16:26.011Z,11.40
2019-05-29T21:18:51.103Z,11.30
2019-05-29T21:21:16.229Z,11.30
2019-05-29T21:23:42.307Z,11.20
2019-05-29T21:26:07.912Z,11.20
2019-05-29T21:28:41.765Z,11.10
2019-05-29T21:31:00.938Z,11.00
2019-05-29T21:33:26.822Z,10.90
2019-05-29T21:35:52.218Z,10.90
2019-05-29T21:38:17.338Z,10.80
2019-05-29T21:40:42.557Z,10.70
2019-05-29T21:43:07.753Z,10.70
2019-05-29T21:45:32.951Z,10.70
2019-05-29T21:47:58.050Z,10.60
2019-05-29T21:50:23.261Z,10.50
2019-05-29T21:52:48.373Z,10.40
2019-05-29T21:55:13.614Z,10.40
2019-05-29T21:57:42.338Z,10.30
2019-05-29T22:00:07.648Z,10.30
2019-05-29T22:02:34.401Z,10.20
2019-05-29T22:04:59.775Z,10.10
2019-05-29T22:07:24.880Z,10.10
2019-05-29T22:09:50.350Z,10.10
2019-05-29T22:12:15.463Z,10.00
2019-05-29T22:14:41.037Z,10.00
2019-05-29T22:17:06.151Z,9.90
2019-05-29T22:19:31.234Z,9.80
2019-05-29T22:21:57.112Z,9.80
2019-05-29T22:24:22.257Z,9.70
2019-05-29T22:26:47.575Z,9.70
2019-05-29T22:29:18.300Z,9.70
2019-05-29T22:31:39.425Z,9.60
2019-05-29T22:34:04.514Z,9.60
2019-05-29T22:36:29.610Z,9.50
2019-05-29T22:38:55.471Z,9.50
2019-05-29T22:41:20.598Z,9.40
2019-05-29T22:43:45.935Z,9.40
2019-05-29T22:46:12.132Z,9.30
2019-05-29T22:48:37.221Z,9.30
2019-05-29T22:51:02.314Z,9.20
2019-05-29T22:53:27.448Z,9.20
2019-05-29T22:55:53.623Z,9.20
2019-05-29T22:58:18.849Z,9.10
2019-05-29T23:00:44.596Z,9.10
2019-05-29T23:03:09.750Z,9.10
2019-05-29T23:05:34.889Z,9.00
2019-05-29T23:08:00.376Z,8.90
2019-05-29T23:10:26.485Z,8.90
2019-05-29T23:12:52.815Z,8.90
2019-05-29T23:15:19.143Z,8.80
2019-05-29T23:17:44.234Z,8.80
2019-05-29T23:20:09.730Z,8.70
2019-05-29T23:22:34.854Z,8.70
2019-05-29T23:25:00.947Z,8.60
2019-05-29T23:27:26.302Z,8.60
2019-05-29T23:29:52.584Z,8.60
2019-05-29T23:32:17.794Z,8.50
2019-05-29T23:34:42.886Z,8.50
2019-05-29T23:37:08.005Z,8.40
2019-05-29T23:39:33.098Z,8.40
2019-05-29T23:41:59.308Z,8.40
2019-05-29T23:44:24.510Z,8.30
2019-05-29T23:46:49.599Z,8.30
2019-05-29T23:49:14.706Z,8.30
2019-05-29T23:51:39.858Z,8.20
2019-05-29T23:54:05.131Z,8.20
2019-05-29T23:56:30.232Z,8.20
2019-05-29T23:58:55.685Z,8.10
